Time;durP1;ratioP1;P1;durP2;ratioP2;P2;SDS_P1;SDS_P2;PMS_P1;PMS_P2;Temp;Humidity;BMP_temperature;BMP_pressure;BME280_temperature;BME280_humidity;BME280_pressure;Samples;Min_cycle;Max_cycle;Signal;HPM_P1;HPM_P2
2023/12/04 00:01:56;;;;;;;12.65;6.68;;;1.60;99.90;;;;;;4919646;29;20047;-81
2023/12/04 00:04:23;;;;;;;13.40;6.28;;;1.50;99.90;;;;;;4898827;29;20047;-81
2023/12/04 00:06:51;;;;;;;12.17;5.37;;;1.60;99.90;;;;;;4924350;29;20551;-82
2023/12/04 00:09:18;;;;;;;15.32;6.47;;;1.60;99.90;;;;;;4919685;29;20044;-81
2023/12/04 00:11:45;;;;;;;10.50;4.50;;;1.50;99.90;;;;;;4903918;29;20047;-82
2023/12/04 00:14:12;;;;;;;11.95;5.25;;;1.60;99.90;;;;;;4890839;29;20106;-81
2023/12/04 00:16:39;;;;;;;10.63;4.85;;;1.60;99.90;;;;;;4911698;29;20091;-81
2023/12/04 00:19:06;;;;;;;12.20;5.33;;;1.60;99.90;;;;;;4889256;29;20044;-81
2023/12/04 00:21:34;;;;;;;11.87;5.43;;;1.60;99.90;;;;;;4914276;29;20056;-81
2023/12/04 00:24:01;;;;;;;12.27;5.03;;;1.60;99.90;;;;;;4900543;29;20063;-81
2023/12/04 00:26:28;;;;;;;15.75;6.63;;;1.60;99.90;;;;;;4924511;29;20051;-82
2023/12/04 00:28:56;;;;;;;12.18;5.55;;;1.50;99.90;;;;;;4924111;29;20503;-81
2023/12/04 00:31:24;;;;;;;14.32;5.90;;;1.50;99.90;;;;;;4939537;29;20040;-81
2023/12/04 00:33:51;;;;;;;12.43;5.47;;;1.50;99.90;;;;;;4919110;29;20055;-81
2023/12/04 00:36:19;;;;;;;14.02;6.68;;;1.60;99.90;;;;;;4932988;29;20047;-82
2023/12/04 00:38:46;;;;;;;13.63;6.03;;;1.60;99.90;;;;;;4903859;29;20067;-82
2023/12/04 00:41:13;;;;;;;12.03;5.43;;;1.60;99.90;;;;;;4889597;29;20065;-81
2023/12/04 00:43:40;;;;;;;15.18;6.97;;;1.60;99.90;;;;;;4931825;29;20095;-82
2023/12/04 00:46:07;;;;;;;12.73;4.88;;;1.60;99.90;;;;;;4887928;29;20056;-82
2023/12/04 00:48:34;;;;;;;11.18;5.07;;;1.60;99.90;;;;;;4918862;29;20047;-82
2023/12/04 00:51:02;;;;;;;10.10;4.63;;;1.60;99.90;;;;;;4922636;29;20075;-81
2023/12/04 00:53:29;;;;;;;11.63;5.30;;;1.60;99.90;;;;;;4903143;29;20073;-81
2023/12/04 00:55:55;;;;;;;11.93;4.82;;;1.60;99.90;;;;;;4891312;29;20172;-81
2023/12/04 00:58:22;;;;;;;12.93;5.50;;;1.60;99.90;;;;;;4919605;29;20071;-81
2023/12/04 01:00:51;;;;;;;12.57;5.25;;;1.70;99.90;;;;;;4899115;29;20087;-81
2023/12/04 01:03:18;;;;;;;11.75;5.72;;;1.60;99.90;;;;;;4888592;29;20112;-81
2023/12/04 01:05:48;;;;;;;12.50;5.60;;;1.60;99.90;;;;;;4921770;29;20515;-82
2023/12/04 01:08:15;;;;;;;9.95;4.90;;;1.50;99.90;;;;;;4909701;29;20048;-82
2023/12/04 01:10:43;;;;;;;9.88;4.63;;;1.50;99.90;;;;;;4932143;29;20056;-81
2023/12/04 01:13:10;;;;;;;14.77;5.00;;;1.50;99.90;;;;;;4887580;29;20051;-81
2023/12/04 01:15:37;;;;;;;11.23;4.85;;;1.50;99.90;;;;;;4918817;29;20055;-81
2023/12/04 01:18:04;;;;;;;10.95;4.80;;;1.50;99.90;;;;;;4903026;29;20051;-81
2023/12/04 01:20:33;;;;;;;11.48;4.43;;;1.50;99.90;;;;;;4918651;29;20051;-81
2023/12/04 01:23:00;;;;;;;11.32;4.88;;;1.50;99.90;;;;;;4923596;29;20408;-81
2023/12/04 01:25:27;;;;;;;12.95;5.10;;;1.50;99.90;;;;;;4899831;29;20066;-81
2023/12/04 01:27:54;;;;;;;12.77;4.72;;;1.50;99.90;;;;;;4906196;29;20035;-81
2023/12/04 01:30:21;;;;;;;13.03;5.73;;;1.50;99.90;;;;;;4918504;29;20051;-81
2023/12/04 01:32:48;;;;;;;9.80;4.13;;;1.60;99.90;;;;;;4931983;29;20040;-81
2023/12/04 01:35:19;;;;;;;10.90;5.88;;;1.60;99.90;;;;;;4894949;29;20420;-81
2023/12/04 01:37:46;;;;;;;12.90;5.50;;;1.60;99.90;;;;;;4920989;29;20134;-81
2023/12/04 01:40:13;;;;;;;13.43;5.07;;;1.60;99.90;;;;;;4905577;29;20118;-77
2023/12/04 01:42:42;;;;;;;12.63;5.15;;;1.60;99.90;;;;;;4925877;29;20095;-76
2023/12/04 01:45:09;;;;;;;12.37;5.50;;;1.60;99.90;;;;;;4934115;29;20472;-76
2023/12/04 01:47:37;;;;;;;10.83;5.00;;;1.60;99.90;;;;;;4935446;29;20547;-77
2023/12/04 01:50:05;;;;;;;13.57;5.50;;;1.60;99.90;;;;;;4900138;29;20044;-77
2023/12/04 01:52:33;;;;;;;12.20;5.33;;;1.60;99.90;;;;;;4924442;29;20059;-76
2023/12/04 01:55:00;;;;;;;12.23;5.60;;;1.60;99.90;;;;;;4934071;29;20075;-76
2023/12/04 01:57:27;;;;;;;10.80;5.10;;;1.60;99.90;;;;;;4902492;29;20440;-76
2023/12/04 01:59:54;;;;;;;11.50;5.07;;;1.60;99.90;;;;;;4902414;29;20047;-76
2023/12/04 02:02:21;;;;;;;11.38;4.95;;;1.60;99.90;;;;;;4905109;29;20155;-76
2023/12/04 02:04:48;;;;;;;11.43;5.15;;;1.60;99.90;;;;;;4919659;29;20451;-76
2023/12/04 02:07:15;;;;;;;11.30;4.85;;;1.60;99.90;;;;;;4906310;29;20055;-76
2023/12/04 02:09:42;;;;;;;12.05;4.65;;;1.50;99.90;;;;;;4921666;29;20059;-76
2023/12/04 02:12:09;;;;;;;10.53;4.30;;;1.50;99.90;;;;;;4892113;29;20058;-76
2023/12/04 02:14:36;;;;;;;9.90;4.88;;;1.50;99.90;;;;;;4942888;29;20503;-76
2023/12/04 02:17:06;;;;;;;13.57;6.03;;;1.50;99.90;;;;;;4894983;29;20048;-77
2023/12/04 02:19:33;;;;;;;9.93;4.90;;;1.50;99.90;;;;;;4921374;29;20526;-77
2023/12/04 02:22:00;;;;;;;11.07;4.40;;;1.50;99.90;;;;;;4926838;29;20054;-77
2023/12/04 02:24:28;;;;;;;9.30;4.03;;;1.50;99.90;;;;;;4903063;29;20074;-76
2023/12/04 02:27:04;;;;;;;10.53;4.83;;;1.50;99.90;;;;;;4946025;29;20055;-76
2023/12/04 02:29:39;;;;;;;10.67;4.87;;;1.50;99.90;;;;;;4937941;29;20052;-76
2023/12/04 02:32:11;;;;;;;9.90;4.57;;;1.40;99.90;;;;;;4936970;29;20044;-77
2023/12/04 02:34:40;;;;;;;8.10;4.07;;;1.40;99.90;;;;;;4939571;29;20056;-77
2023/12/04 02:37:09;;;;;;;10.43;4.23;;;1.40;99.90;;;;;;4939596;29;20298;-76
2023/12/04 02:39:37;;;;;;;8.23;4.27;;;1.40;99.90;;;;;;4920853;29;20043;-77
2023/12/04 02:42:04;;;;;;;10.20;4.60;;;1.30;99.90;;;;;;4921322;29;20118;-77
2023/12/04 02:44:31;;;;;;;9.90;4.17;;;1.40;99.90;;;;;;4936777;29;20055;-77
2023/12/04 02:46:58;;;;;;;10.23;4.30;;;1.40;99.90;;;;;;4889985;29;20075;-77
2023/12/04 02:49:25;;;;;;;8.97;4.17;;;1.30;99.90;;;;;;4924092;29;20452;-77
2023/12/04 02:51:52;;;;;;;9.13;4.27;;;1.30;99.90;;;;;;4920761;29;20052;-77
2023/12/04 02:54:19;;;;;;;13.20;4.77;;;1.30;99.90;;;;;;4923047;29;20043;-77
2023/12/04 02:56:46;;;;;;;9.23;4.60;;;1.40;99.90;;;;;;4901881;29;20040;-77
2023/12/04 02:59:13;;;;;;;10.27;3.97;;;1.40;99.90;;;;;;4925666;29;20051;-77
2023/12/04 03:01:40;;;;;;;10.47;5.03;;;1.30;99.90;;;;;;4905103;29;20055;-77
2023/12/04 03:04:07;;;;;;;8.43;3.57;;;1.40;99.90;;;;;;4901897;29;20056;-77
2023/12/04 03:06:34;;;;;;;8.73;3.87;;;1.30;99.90;;;;;;4889702;29;20559;-76
2023/12/04 03:09:03;;;;;;;10.80;4.23;;;1.30;99.90;;;;;;4927705;29;20048;-76
2023/12/04 03:11:30;;;;;;;10.65;4.80;;;1.40;99.90;;;;;;4944301;29;20046;-76
2023/12/04 03:14:00;;;;;;;9.07;4.40;;;1.40;99.90;;;;;;4918958;29;20466;-76
2023/12/04 03:16:27;;;;;;;11.17;5.23;;;1.40;99.90;;;;;;4927777;29;20047;-77
2023/12/04 03:18:54;;;;;;;10.20;4.50;;;1.40;99.90;;;;;;4920870;29;20043;-76
2023/12/04 03:21:21;;;;;;;8.30;4.13;;;1.40;99.90;;;;;;4904857;29;20044;-76
2023/12/04 03:23:48;;;;;;;7.73;4.10;;;1.50;99.90;;;;;;4889261;29;20066;-76
2023/12/04 03:26:15;;;;;;;10.27;4.47;;;1.40;99.90;;;;;;4901226;29;20044;-77
2023/12/04 03:28:43;;;;;;;8.23;3.80;;;1.50;99.90;;;;;;4930012;29;20054;-77
2023/12/04 03:31:10;;;;;;;8.43;4.30;;;1.50;99.90;;;;;;4904712;29;20060;-78
2023/12/04 03:33:38;;;;;;;8.87;3.70;;;1.50;99.90;;;;;;4912476;29;20044;-77
2023/12/04 03:36:05;;;;;;;8.33;4.03;;;1.50;99.90;;;;;;4941714;29;20050;-77
2023/12/04 03:38:32;;;;;;;9.37;3.47;;;1.50;99.90;;;;;;4920153;29;20453;-76
2023/12/04 03:40:59;;;;;;;7.30;3.03;;;1.50;99.90;;;;;;4892534;29;20052;-76
2023/12/04 03:43:26;;;;;;;8.07;3.70;;;1.50;99.90;;;;;;4920190;29;20066;-76
2023/12/04 03:45:53;;;;;;;7.77;3.80;;;1.50;99.90;;;;;;4896137;29;20051;-77
2023/12/04 03:48:20;;;;;;;8.87;3.83;;;1.50;99.90;;;;;;4903022;29;20054;-77
2023/12/04 03:50:47;;;;;;;7.95;2.97;;;1.50;99.90;;;;;;4888966;29;20054;-76
2023/12/04 03:53:14;;;;;;;7.83;3.83;;;1.50;99.90;;;;;;4919785;29;20165;-76
2023/12/04 03:55:41;;;;;;;7.97;3.07;;;1.50;99.90;;;;;;4923891;29;20048;-76
2023/12/04 03:58:08;;;;;;;7.57;3.33;;;1.50;99.90;;;;;;4941633;29;20071;-77
2023/12/04 04:00:35;;;;;;;8.60;3.58;;;1.50;99.90;;;;;;4901704;29;20039;-76
2023/12/04 04:03:02;;;;;;;9.97;3.83;;;1.50;99.90;;;;;;4896590;29;20492;-76
2023/12/04 04:05:29;;;;;;;7.10;3.00;;;1.40;99.90;;;;;;4902312;29;20044;-77
2023/12/04 04:07:57;;;;;;;7.33;3.20;;;1.40;99.90;;;;;;4898945;29;20111;-77
2023/12/04 04:10:24;;;;;;;5.47;2.67;;;1.40;99.90;;;;;;4935101;29;20107;-77
2023/12/04 04:12:51;;;;;;;6.27;3.07;;;1.40;99.90;;;;;;4930314;29;20087;-77
2023/12/04 04:15:18;;;;;;;8.37;3.47;;;1.40;99.90;;;;;;4888243;29;20044;-77
2023/12/04 04:17:45;;;;;;;9.00;4.37;;;1.40;99.90;;;;;;4919408;29;20047;-77
2023/12/04 04:20:14;;;;;;;7.27;3.13;;;1.40;99.90;;;;;;4910227;29;20063;-77
2023/12/04 04:22:42;;;;;;;7.83;3.37;;;1.30;99.90;;;;;;4912361;29;20059;-77
2023/12/04 04:25:10;;;;;;;8.43;3.97;;;1.30;99.90;;;;;;4885095;29;20059;-77
2023/12/04 04:27:37;;;;;;;8.48;4.25;;;1.30;99.90;;;;;;4903947;29;20055;-78
2023/12/04 04:30:04;;;;;;;8.23;3.73;;;1.30;99.90;;;;;;4931405;29;20412;-75
2023/12/04 04:32:31;;;;;;;7.83;3.17;;;1.30;99.90;;;;;;4900356;29;20484;-76
2023/12/04 04:34:58;;;;;;;9.60;4.10;;;1.30;99.90;;;;;;4915769;29;20146;-77
2023/12/04 04:37:26;;;;;;;8.43;3.30;;;1.30;99.90;;;;;;4900281;29;20560;-77
2023/12/04 04:39:53;;;;;;;8.43;4.00;;;1.30;99.90;;;;;;4884806;29;20072;-77
2023/12/04 04:42:22;;;;;;;8.70;4.17;;;1.30;99.90;;;;;;4884952;29;20465;-76
2023/12/04 04:44:49;;;;;;;9.47;4.30;;;1.30;99.90;;;;;;4912248;29;20059;-76
2023/12/04 04:47:16;;;;;;;9.27;4.10;;;1.30;99.90;;;;;;4884752;29;20494;-77
2023/12/04 04:49:43;;;;;;;9.30;4.33;;;1.30;99.90;;;;;;4884600;29;20052;-77
2023/12/04 04:52:10;;;;;;;8.77;3.90;;;1.30;99.90;;;;;;4900025;29;20048;-78
2023/12/04 04:54:37;;;;;;;10.57;4.47;;;1.30;99.90;;;;;;4931667;29;20091;-77
2023/12/04 04:57:04;;;;;;;8.10;4.33;;;1.30;99.90;;;;;;4884386;29;20059;-78
2023/12/04 04:59:31;;;;;;;7.57;3.70;;;1.30;99.90;;;;;;4901002;29;20445;-78
2023/12/04 05:01:58;;;;;;;7.83;4.27;;;1.30;99.90;;;;;;4931199;29;20055;-77
2023/12/04 05:04:25;;;;;;;7.88;3.78;;;1.30;99.90;;;;;;4915460;29;20087;-77
2023/12/04 05:06:52;;;;;;;9.10;3.70;;;1.20;99.90;;;;;;4911476;29;20564;-77
2023/12/04 05:09:19;;;;;;;6.93;2.97;;;1.20;99.90;;;;;;4915426;29;20048;-77
2023/12/04 05:11:47;;;;;;;8.17;3.77;;;1.30;99.90;;;;;;4915360;29;20091;-78
2023/12/04 05:14:13;;;;;;;7.83;3.43;;;1.20;99.90;;;;;;4884492;29;20052;-78
2023/12/04 05:16:41;;;;;;;7.05;3.15;;;1.20;99.90;;;;;;4915571;29;20048;-78
2023/12/04 05:19:08;;;;;;;7.60;3.47;;;1.20;99.90;;;;;;4899635;29;20044;-77
2023/12/04 05:21:35;;;;;;;8.73;4.00;;;1.20;99.90;;;;;;4915690;29;20445;-78
2023/12/04 05:24:02;;;;;;;9.30;4.07;;;1.20;99.80;;;;;;4913580;29;20151;-77
2023/12/04 05:26:29;;;;;;;9.07;4.40;;;1.20;99.80;;;;;;4920866;29;20089;-77
2023/12/04 05:28:56;;;;;;;7.73;4.20;;;1.20;99.80;;;;;;4930970;29;20063;-77
2023/12/04 05:31:23;;;;;;;8.63;3.90;;;1.20;99.80;;;;;;4935081;29;20044;-76
2023/12/04 05:33:50;;;;;;;10.60;4.37;;;1.20;99.80;;;;;;4937191;29;20051;-76
2023/12/04 05:36:18;;;;;;;8.30;3.63;;;1.20;99.80;;;;;;4915280;29;20140;-77
2023/12/04 05:38:48;;;;;;;8.80;4.40;;;1.20;99.80;;;;;;4931147;29;20045;-76
2023/12/04 05:41:15;;;;;;;8.43;3.83;;;1.20;99.80;;;;;;4930104;29;20386;-76
2023/12/04 05:43:42;;;;;;;6.73;3.13;;;1.20;99.80;;;;;;4919083;29;20048;-76
2023/12/04 05:46:09;;;;;;;8.60;3.87;;;1.20;99.80;;;;;;4934391;29;20064;-76
2023/12/04 05:48:36;;;;;;;7.80;3.83;;;1.20;99.70;;;;;;4922932;29;20067;-77
2023/12/04 05:51:04;;;;;;;7.40;3.10;;;1.20;99.70;;;;;;4934822;29;20062;-77
2023/12/04 05:53:31;;;;;;;6.63;3.33;;;1.20;99.70;;;;;;4903155;29;20125;-77
2023/12/04 05:55:57;;;;;;;7.73;3.33;;;1.20;99.70;;;;;;4946398;29;20393;-77
2023/12/04 05:58:24;;;;;;;8.20;3.53;;;1.20;99.70;;;;;;4934461;29;20048;-77
2023/12/04 06:00:51;;;;;;;7.30;3.40;;;1.20;99.70;;;;;;4891817;29;20041;-77
2023/12/04 06:03:19;;;;;;;8.43;3.57;;;1.20;99.70;;;;;;4913192;29;20051;-77
2023/12/04 06:05:46;;;;;;;8.33;3.97;;;1.20;99.60;;;;;;4918626;29;20104;-77
2023/12/04 06:08:13;;;;;;;6.97;3.30;;;1.30;99.60;;;;;;4918506;29;20091;-78
2023/12/04 06:10:40;;;;;;;7.77;2.90;;;1.30;99.60;;;;;;4918316;29;20055;-76
2023/12/04 06:13:07;;;;;;;8.77;3.70;;;1.30;99.60;;;;;;4907693;29;20051;-76
2023/12/04 06:15:34;;;;;;;7.10;3.90;;;1.30;99.60;;;;;;4907325;29;20064;-77
2023/12/04 06:18:02;;;;;;;7.97;3.40;;;1.30;99.60;;;;;;4934042;29;20131;-76
2023/12/04 06:20:29;;;;;;;6.07;3.50;;;1.30;99.50;;;;;;4918359;29;20048;-77
2023/12/04 06:22:56;;;;;;;6.80;2.87;;;1.30;99.50;;;;;;4902257;29;20115;-77
2023/12/04 06:25:24;;;;;;;7.30;3.03;;;1.30;99.50;;;;;;4902936;29;20048;-76
2023/12/04 06:27:51;;;;;;;8.20;3.30;;;1.30;99.50;;;;;;4902873;29;20058;-76
2023/12/04 06:30:19;;;;;;;6.60;2.87;;;1.30;99.40;;;;;;4902561;29;20142;-77
2023/12/04 06:32:46;;;;;;;5.67;2.97;;;1.30;99.40;;;;;;4918083;29;20385;-77
2023/12/04 06:35:14;;;;;;;4.72;2.97;;;1.30;99.40;;;;;;4918063;29;20068;-78
2023/12/04 06:37:48;;;;;;;6.00;2.70;;;1.40;99.40;;;;;;4934055;29;20551;-78
2023/12/04 06:40:17;;;;;;;5.57;2.63;;;1.40;99.40;;;;;;4919116;29;20048;-78
2023/12/04 06:42:44;;;;;;;6.15;2.65;;;1.40;99.40;;;;;;4918060;29;20044;-77
2023/12/04 06:45:12;;;;;;;7.83;3.07;;;1.40;99.40;;;;;;4917897;29;20059;-77
2023/12/04 06:47:43;;;;;;;4.93;2.50;;;1.40;99.40;;;;;;4902557;29;20047;-77
2023/12/04 06:50:10;;;;;;;6.28;2.58;;;1.50;99.40;;;;;;4946668;29;20143;-77
2023/12/04 06:52:37;;;;;;;6.10;2.53;;;1.40;99.30;;;;;;4901503;29;20445;-77
2023/12/04 06:55:04;;;;;;;5.43;2.47;;;1.50;99.30;;;;;;4902177;29;20508;-77
2023/12/04 06:57:31;;;;;;;5.97;2.73;;;1.40;99.20;;;;;;4918103;29;20114;-77
2023/12/04 06:59:58;;;;;;;8.53;3.40;;;1.50;99.20;;;;;;4918004;29;20112;-77
2023/12/04 07:02:25;;;;;;;7.17;3.03;;;1.50;99.20;;;;;;4917512;29;20074;-77
2023/12/04 07:04:52;;;;;;;5.60;2.70;;;1.50;99.20;;;;;;4902044;29;20056;-77
2023/12/04 07:07:19;;;;;;;6.88;3.10;;;1.50;99.20;;;;;;4919108;29;20052;-77
2023/12/04 07:09:46;;;;;;;5.77;2.73;;;1.50;99.10;;;;;;4925677;29;20134;-76
2023/12/04 07:12:13;;;;;;;5.13;2.03;;;1.50;99.10;;;;;;4935306;29;20071;-76
2023/12/04 07:14:40;;;;;;;5.38;2.33;;;1.50;99.10;;;;;;4918596;29;20044;-77
2023/12/04 07:17:07;;;;;;;4.97;2.10;;;1.50;99.10;;;;;;4917255;29;20048;-77
2023/12/04 07:19:34;;;;;;;5.47;2.40;;;1.50;99.10;;;;;;4917270;29;20036;-77
2023/12/04 07:22:02;;;;;;;7.07;2.87;;;1.50;99.10;;;;;;4918409;29;20075;-77
2023/12/04 07:24:29;;;;;;;5.03;2.40;;;1.50;99.10;;;;;;4907512;29;20143;-78
2023/12/04 07:26:56;;;;;;;5.03;1.93;;;1.50;99.00;;;;;;4910135;29;20071;-76
2023/12/04 07:29:23;;;;;;;6.60;2.67;;;1.50;99.00;;;;;;4918015;29;20062;-77
2023/12/04 07:31:50;;;;;;;4.13;2.23;;;1.50;99.00;;;;;;4920162;29;20081;-76
2023/12/04 07:34:17;;;;;;;8.43;2.60;;;1.60;99.00;;;;;;4904676;29;20047;-77
2023/12/04 07:36:44;;;;;;;4.57;2.33;;;1.60;99.00;;;;;;4926404;29;20054;-82
2023/12/04 07:39:13;;;;;;;7.13;1.77;;;1.50;98.90;;;;;;4916605;29;20047;-77
2023/12/04 07:41:40;;;;;;;4.10;1.77;;;1.60;99.00;;;;;;4917447;29;20059;-78
2023/12/04 07:44:08;;;;;;;4.80;2.27;;;1.50;98.90;;;;;;4904330;29;20488;-78
2023/12/04 07:46:35;;;;;;;6.30;1.87;;;1.50;98.90;;;;;;4919747;29;20052;-77
2023/12/04 07:49:03;;;;;;;5.47;2.03;;;1.60;98.90;;;;;;4919737;29;20047;-79
2023/12/04 07:51:30;;;;;;;5.03;1.97;;;1.60;98.90;;;;;;4889145;29;20492;-77
2023/12/04 07:53:57;;;;;;;4.27;2.10;;;1.60;98.80;;;;;;4923318;29;20445;-77
2023/12/04 07:56:28;;;;;;;6.10;2.40;;;1.60;98.80;;;;;;4889677;29;20142;-77
2023/12/04 07:58:55;;;;;;;7.30;2.93;;;1.60;98.70;;;;;;4887922;29;20039;-78
2023/12/04 08:01:24;;;;;;;6.53;2.90;;;1.60;98.70;;;;;;4935162;29;20055;-78
2023/12/04 08:03:51;;;;;;;6.37;2.73;;;1.60;98.60;;;;;;4934805;29;20051;-77
2023/12/04 08:06:19;;;;;;;6.17;3.00;;;1.60;98.60;;;;;;4919561;29;20111;-77
2023/12/04 08:08:46;;;;;;;5.90;2.60;;;1.70;98.60;;;;;;4935021;29;20043;-77
2023/12/04 08:11:13;;;;;;;6.53;2.43;;;1.60;98.50;;;;;;4919413;29;20039;-77
2023/12/04 08:13:40;;;;;;;7.50;3.00;;;1.70;98.50;;;;;;4920467;29;20254;-78
2023/12/04 08:16:17;;;;;;;5.68;2.92;;;1.70;98.40;;;;;;4932151;29;20059;-77
2023/12/04 08:18:44;;;;;;;4.50;2.38;;;1.70;98.30;;;;;;4903991;29;20047;-77
2023/12/04 08:21:12;;;;;;;5.43;2.10;;;1.70;98.40;;;;;;4891006;29;20069;-77
2023/12/04 08:23:40;;;;;;;6.00;2.37;;;1.70;98.30;;;;;;4936700;29;20047;-77
2023/12/04 08:26:07;;;;;;;5.30;2.00;;;1.70;98.30;;;;;;4890729;29;20430;-77
2023/12/04 08:28:36;;;;;;;5.57;2.90;;;1.80;98.30;;;;;;4919207;29;20070;-78
2023/12/04 08:31:04;;;;;;;5.93;3.08;;;1.80;98.30;;;;;;4937249;29;20043;-77
2023/12/04 08:33:31;;;;;;;5.55;2.47;;;1.80;98.30;;;;;;4912400;29;20064;-77
2023/12/04 08:35:59;;;;;;;5.22;2.25;;;1.80;98.20;;;;;;4936048;29;20032;-77
2023/12/04 08:38:26;;;;;;;4.93;2.20;;;1.80;98.20;;;;;;4903678;29;20375;-77
2023/12/04 08:40:53;;;;;;;4.78;2.28;;;1.80;98.20;;;;;;4922862;29;20044;-76
2023/12/04 08:43:20;;;;;;;5.53;2.80;;;1.80;98.40;;;;;;4948262;29;20055;-76
2023/12/04 08:45:47;;;;;;;5.78;2.30;;;1.80;98.20;;;;;;4940905;29;20057;-78
2023/12/04 08:48:14;;;;;;;5.73;2.80;;;1.80;98.10;;;;;;4891453;29;20055;-78
2023/12/04 08:50:41;;;;;;;5.07;2.63;;;1.90;98.20;;;;;;4919145;29;20047;-83
2023/12/04 08:53:08;;;;;;;3.63;2.00;;;1.90;98.10;;;;;;4903369;29;20099;-83
2023/12/04 08:55:35;;;;;;;4.75;2.08;;;1.90;98.10;;;;;;4909797;29;20036;-78
2023/12/04 08:58:03;;;;;;;4.57;1.73;;;2.00;98.10;;;;;;4910134;29;20035;-78
2023/12/04 09:00:30;;;;;;;4.55;1.77;;;2.00;98.10;;;;;;4905810;29;20130;-78
2023/12/04 09:02:57;;;;;;;5.50;2.45;;;2.00;98.00;;;;;;4934306;29;20101;-78
2023/12/04 09:05:37;;;;;;;5.07;1.90;;;2.00;98.00;;;;;;4934795;29;20088;-78
2023/12/04 09:08:04;;;;;;;4.93;1.95;;;2.10;98.00;;;;;;4934657;29;20047;-78
2023/12/04 09:10:34;;;;;;;5.82;2.28;;;2.10;98.00;;;;;;4889932;29;20397;-78
2023/12/04 09:13:21;;;;;;;4.50;1.90;;;2.10;97.90;;;;;;4934288;29;20043;-78
2023/12/04 09:15:48;;;;;;;5.20;2.22;;;2.20;97.90;;;;;;4890958;29;20070;-78
2023/12/04 09:18:18;;;;;;;4.20;2.05;;;2.20;97.90;;;;;;4922717;29;20043;-78
2023/12/04 09:20:46;;;;;;;3.65;1.55;;;2.20;97.90;;;;;;4936087;29;20040;-79
2023/12/04 09:23:13;;;;;;;4.60;1.90;;;2.20;97.90;;;;;;4922777;29;20062;-79
2023/12/04 09:25:44;;;;;;;3.87;1.70;;;2.20;97.90;;;;;;4926082;29;20090;-79
2023/12/04 09:28:11;;;;;;;4.47;1.58;;;2.20;97.90;;;;;;4901892;29;20052;-79
2023/12/04 09:30:39;;;;;;;4.57;1.80;;;2.30;97.90;;;;;;4917827;29;20062;-80
2023/12/04 09:33:06;;;;;;;3.67;1.55;;;2.30;97.90;;;;;;4922573;29;20079;-79
2023/12/04 09:35:33;;;;;;;3.20;1.50;;;2.30;97.80;;;;;;4943931;29;20044;-79
2023/12/04 09:38:01;;;;;;;4.90;2.22;;;2.40;97.90;;;;;;4906596;29;20036;-79
2023/12/04 09:40:28;;;;;;;3.43;1.60;;;2.40;97.80;;;;;;4937449;29;20039;-79
2023/12/04 09:42:55;;;;;;;3.83;1.37;;;2.40;97.80;;;;;;4922072;29;20047;-79
2023/12/04 09:45:25;;;;;;;3.22;1.42;;;2.40;97.80;;;;;;4941031;29;20052;-78
2023/12/04 09:47:53;;;;;;;5.50;2.00;;;2.50;97.70;;;;;;4931448;29;20467;-78
2023/12/04 09:50:22;;;;;;;3.83;1.80;;;2.50;97.70;;;;;;4937771;29;20086;-78
2023/12/04 09:52:53;;;;;;;4.50;2.10;;;2.60;97.70;;;;;;4906339;29;20518;-77
2023/12/04 09:55:20;;;;;;;3.65;1.40;;;2.60;97.60;;;;;;4937519;29;20055;-78
2023/12/04 09:57:48;;;;;;;5.50;2.45;;;2.60;97.60;;;;;;4921687;29;20044;-78
2023/12/04 10:00:17;;;;;;;3.80;1.90;;;2.60;97.60;;;;;;4935320;29;20119;-78
2023/12/04 10:02:45;;;;;;;5.38;2.38;;;2.60;97.50;;;;;;4921922;29;20518;-78
2023/12/04 10:05:13;;;;;;;6.25;2.95;;;2.70;97.50;;;;;;4894418;29;20492;-89
2023/12/04 10:07:40;;;;;;;5.82;2.80;;;2.70;97.50;;;;;;4942335;28;20131;-78
2023/12/04 10:10:08;;;;;;;6.47;3.20;;;2.70;97.40;;;;;;4895683;29;20047;-78
2023/12/04 10:12:36;;;;;;;4.63;2.50;;;2.70;97.40;;;;;;4921339;29;20047;-78
2023/12/04 10:15:10;;;;;;;6.63;3.55;;;2.70;97.40;;;;;;4946398;29;20058;-78
2023/12/04 10:17:43;;;;;;;5.90;2.95;;;2.80;97.60;;;;;;4950481;29;20051;-78
2023/12/04 10:20:17;;;;;;;6.68;2.90;;;2.80;97.30;;;;;;4930941;29;20050;-81
2023/12/04 10:23:01;;;;;;;6.38;2.88;;;2.80;97.30;;;;;;4937369;29;20051;-82
2023/12/04 10:25:52;;;;;;;6.70;3.10;;;2.80;97.20;;;;;;4921257;29;20138;-83
2023/12/04 10:28:19;;;;;;;6.10;2.70;;;2.80;97.20;;;;;;4944068;29;20078;-82
2023/12/04 10:30:46;;;;;;;6.10;2.63;;;2.80;97.20;;;;;;4938936;29;20047;-82
2023/12/04 10:33:25;;;;;;;5.38;2.90;;;2.80;97.20;;;;;;4926936;29;20079;-93
2023/12/04 10:35:53;;;;;;;6.28;2.78;;;2.90;97.10;;;;;;4951074;29;20050;-83
2023/12/04 10:38:20;;;;;;;6.15;2.67;;;2.90;97.10;;;;;;4891291;29;20056;-82
2023/12/04 10:41:13;;;;;;;5.75;2.65;;;2.90;97.10;;;;;;4921744;29;20382;-91
2023/12/04 10:44:00;;;;;;;;;;;;;;;;;;;;;
2023/12/04 10:46:42;;;;;;;5.25;2.67;;;2.90;97.10;;;;;;4938813;29;20071;-92
2023/12/04 10:49:10;;;;;;;7.30;3.15;;;2.90;97.00;;;;;;4938251;29;20047;-89
2023/12/04 10:51:38;;;;;;;5.60;2.67;;;2.90;97.00;;;;;;4938300;29;20587;-91
2023/12/04 10:54:05;;;;;;;4.97;2.53;;;2.90;97.10;;;;;;4941806;29;20043;-89
2023/12/04 10:56:40;;;;;;;5.88;3.03;;;2.90;97.10;;;;;;4942274;29;20044;-90
2023/12/04 10:59:15;;;;;;;4.65;2.28;;;2.90;97.10;;;;;;4942187;29;20109;-85
2023/12/04 11:01:45;;;;;;;5.15;2.08;;;3.00;97.10;;;;;;4938002;29;20043;-87
2023/12/04 11:04:18;;;;;;;5.75;2.65;;;3.00;97.00;;;;;;4949376;29;20047;-83
2023/12/04 11:06:49;;;;;;;6.82;2.55;;;3.00;97.00;;;;;;4937189;29;20055;-87
2023/12/04 11:09:18;;;;;;;5.10;2.40;;;3.10;96.90;;;;;;4952841;28;20067;-87
2023/12/04 11:11:53;;;;;;;5.70;2.50;;;3.10;96.80;;;;;;4937099;29;20060;-83
2023/12/04 11:14:25;;;;;;;4.90;2.50;;;3.10;96.70;;;;;;4925039;29;20047;-86
2023/12/04 11:17:00;;;;;;;5.50;3.03;;;3.20;96.80;;;;;;4943494;29;20051;-85
2023/12/04 11:19:55;;;;;;;7.95;4.28;;;3.20;96.70;;;;;;4909614;29;20378;-87
2023/12/04 11:22:25;;;;;;;6.93;3.42;;;3.20;96.60;;;;;;4906352;29;20433;-85
2023/12/04 11:24:54;;;;;;;4.82;2.75;;;3.20;96.60;;;;;;4937344;29;20095;-86
2023/12/04 11:27:22;;;;;;;4.60;2.35;;;3.20;96.60;;;;;;4949848;29;20051;-86
2023/12/04 11:29:51;;;;;;;5.15;2.90;;;3.20;96.60;;;;;;4921855;29;20043;-83
2023/12/04 11:32:19;;;;;;;6.32;2.67;;;3.20;96.50;;;;;;4920787;29;20102;-86
2023/12/04 11:35:01;;;;;;;7.38;3.15;;;3.20;96.50;;;;;;4905125;29;20082;-83
2023/12/04 11:37:29;;;;;;;;;;;3.20;96.50;;;;;;4936569;29;20040;-82
2023/12/04 11:39:57;;;;;;;5.95;2.67;;;3.10;96.50;;;;;;4936052;29;19926;-84
2023/12/04 11:42:25;;;;;;;8.63;3.60;;;3.20;96.60;;;;;;4920830;29;20054;-85
2023/12/04 11:44:59;;;;;;;5.13;2.95;;;3.10;96.40;;;;;;4933216;29;20050;-85
2023/12/04 11:47:28;;;;;;;6.25;3.03;;;3.20;96.40;;;;;;4905255;29;20070;-87
2023/12/04 11:50:05;;;;;;;6.25;2.60;;;3.20;96.40;;;;;;4917264;29;20130;-85
2023/12/04 11:52:36;;;;;;;6.88;3.28;;;3.20;96.40;;;;;;4946590;29;20062;-85
2023/12/04 11:55:05;;;;;;;6.82;3.45;;;3.20;96.30;;;;;;4948486;29;20135;-90
2023/12/04 11:57:40;;;;;;;7.45;3.40;;;3.10;96.20;;;;;;4937034;29;20470;-86
2023/12/04 12:00:16;;;;;;;6.30;3.30;;;3.20;96.30;;;;;;4937598;29;20531;-85
2023/12/04 12:02:53;;;;;;;6.93;3.13;;;3.20;96.30;;;;;;4942544;29;20044;-88
2023/12/04 12:05:40;;;;;;;6.53;2.83;;;3.20;96.20;;;;;;4938537;29;20134;-88
2023/12/04 12:08:09;;;;;;;5.85;3.30;;;3.20;96.20;;;;;;4944376;29;20091;-89
2023/12/04 12:10:36;;;;;;;7.32;3.55;;;3.20;96.20;;;;;;4950008;29;20131;-87
2023/12/04 12:13:03;;;;;;;6.68;3.58;;;3.20;96.40;;;;;;4920396;29;20091;-86
2023/12/04 12:15:32;;;;;;;7.45;3.58;;;3.20;96.10;;;;;;4902263;29;20147;-86
2023/12/04 12:18:00;;;;;;;7.65;3.50;;;3.20;96.10;;;;;;4936220;29;20095;-83
2023/12/04 12:20:27;;;;;;;7.22;3.33;;;3.20;96.00;;;;;;4900359;29;20044;-89
2023/12/04 12:22:54;;;;;;;5.72;2.63;;;3.20;96.00;;;;;;4933053;29;20155;-87
2023/12/04 12:25:22;;;;;;;7.78;3.22;;;3.30;96.10;;;;;;4900486;29;20056;-83
2023/12/04 12:27:50;;;;;;;6.05;3.15;;;3.30;96.10;;;;;;4917027;29;20048;-82
2023/12/04 12:30:18;;;;;;;6.18;2.88;;;3.30;96.00;;;;;;4900535;29;20048;-83
2023/12/04 12:32:45;;;;;;;4.93;2.88;;;3.30;96.00;;;;;;4869537;29;20192;-83
2023/12/04 12:35:12;;;;;;;6.47;2.85;;;3.30;96.00;;;;;;4915981;29;20040;-83
2023/12/04 12:37:39;;;;;;;5.95;3.58;;;3.30;96.00;;;;;;4931850;29;20489;-87
2023/12/04 12:40:09;;;;;;;8.95;3.72;;;3.30;95.90;;;;;;4905755;29;20048;-88
2023/12/04 12:42:46;;;;;;;7.45;3.55;;;3.30;95.90;;;;;;4917373;29;20074;-88
2023/12/04 12:45:13;;;;;;;7.07;4.03;;;3.20;95.90;;;;;;4888603;29;20496;-88
2023/12/04 12:47:46;;;;;;;6.65;3.33;;;3.20;95.90;;;;;;4917547;29;20040;-88
2023/12/04 12:50:13;;;;;;;8.57;4.25;;;3.20;95.90;;;;;;4916921;29;20127;-88
2023/12/04 12:52:42;;;;;;;7.72;3.75;;;3.20;95.90;;;;;;4925381;28;20048;-90
2023/12/04 12:55:10;;;;;;;5.38;3.15;;;3.20;95.90;;;;;;4900995;29;20138;-89
2023/12/04 12:57:38;;;;;;;7.05;3.90;;;3.20;95.90;;;;;;4885775;29;20055;-89
2023/12/04 13:00:07;;;;;;;7.30;3.55;;;3.20;95.90;;;;;;4916918;29;20051;-91
2023/12/04 13:02:37;;;;;;;5.63;3.15;;;3.20;95.90;;;;;;4932395;29;20564;-85